createdAt,value
2022-09-23T00:01:15.797Z,6.57
2022-09-23T00:03:47.361Z,6.57
2022-09-23T00:06:17.308Z,5.80
2022-09-23T00:08:44.999Z,6.30
2022-09-23T00:11:14.887Z,6.30
2022-09-23T00:13:44.404Z,5.87
2022-09-23T00:16:14.588Z,5.90
2022-09-23T00:18:42.786Z,6.18
2022-09-23T00:21:13.907Z,6.18
2022-09-23T00:23:43.219Z,6.30
2022-09-23T00:26:13.868Z,6.18
2022-09-23T00:28:41.557Z,6.17
2022-09-23T00:31:11.851Z,6.18
2022-09-23T00:33:40.566Z,5.90
2022-09-23T00:36:10.926Z,6.20
2022-09-23T00:38:40.110Z,6.10
2022-09-23T00:41:07.929Z,6.38
2022-09-23T00:43:41.245Z,5.82
2022-09-23T00:46:10.323Z,5.93
2022-09-23T00:48:39.103Z,6.10
2022-09-23T00:51:08.875Z,5.57
2022-09-23T00:53:37.247Z,5.70
2022-09-23T00:56:08.856Z,5.72
2022-09-23T00:58:38.542Z,5.73
2022-09-23T01:01:06.665Z,5.90
2022-09-23T01:03:34.450Z,5.55
2022-09-23T01:06:02.433Z,5.53
2022-09-23T01:08:31.179Z,5.83
2022-09-23T01:11:05.998Z,6.07
2022-09-23T01:13:39.155Z,5.68
2022-09-23T01:16:09.883Z,6.07
2022-09-23T01:18:43.885Z,5.88
2022-09-23T01:21:31.807Z,5.80
2022-09-23T01:24:24.274Z,6.20
2022-09-23T01:27:00.403Z,6.05
2022-09-23T01:29:58.093Z,5.85
2022-09-23T01:32:49.847Z,6.00
2022-09-23T01:35:26.232Z,6.07
2022-09-23T01:38:11.286Z,5.60
2022-09-23T01:40:48.643Z,6.07
2022-09-23T01:43:21.323Z,5.53
2022-09-23T01:45:52.165Z,5.65
2022-09-23T01:48:23.658Z,5.93
2022-09-23T01:50:58.017Z,5.72
2022-09-23T01:53:33.058Z,5.75
2022-09-23T01:56:04.604Z,6.00
2022-09-23T01:58:36.632Z,6.07
2022-09-23T02:01:07.020Z,6.05
2022-09-23T02:03:40.246Z,5.88
2022-09-23T02:06:12.575Z,5.77
2022-09-23T02:08:44.352Z,6.07
2022-09-23T02:11:13.803Z,6.20
2022-09-23T02:13:46.706Z,6.47
2022-09-23T02:16:20.021Z,6.07
2022-09-23T02:18:53.233Z,5.50
2022-09-23T02:21:22.555Z,6.03
2022-09-23T02:23:52.467Z,5.87
2022-09-23T02:26:22.565Z,6.05
2022-09-23T02:28:57.831Z,5.78
2022-09-23T02:31:32.792Z,5.82
2022-09-23T02:34:10.629Z,5.60
2022-09-23T02:36:44.867Z,5.80
2022-09-23T02:39:14.570Z,5.35
2022-09-23T02:41:50.584Z,5.53
2022-09-23T02:44:19.763Z,5.45
2022-09-23T02:46:47.829Z,5.85
2022-09-23T02:49:19.071Z,5.72
2022-09-23T02:51:47.044Z,5.63
2022-09-23T02:54:22.606Z,5.78
2022-09-23T02:56:50.501Z,5.60
2022-09-23T02:59:19.639Z,5.88
2022-09-23T03:02:00.985Z,5.15
2022-09-23T03:04:36.429Z,5.47
2022-09-23T03:07:07.421Z,5.70
2022-09-23T03:09:37.036Z,5.60
2022-09-23T03:12:13.502Z,5.20
2022-09-23T03:14:49.459Z,5.75
2022-09-23T03:17:23.173Z,5.53
2022-09-23T03:19:55.266Z,5.87
2022-09-23T03:22:26.517Z,5.03
2022-09-23T03:24:55.938Z,6.10
2022-09-23T03:27:25.853Z,5.50
2022-09-23T03:29:54.836Z,5.78
2022-09-23T03:32:27.446Z,5.80
2022-09-23T03:34:58.512Z,5.88
2022-09-23T03:37:30.192Z,5.85
2022-09-23T03:40:01.231Z,5.47
2022-09-23T03:42:31.232Z,6.10
2022-09-23T03:44:59.090Z,6.20
2022-09-23T03:47:28.131Z,5.88
2022-09-23T03:49:57.693Z,6.15
2022-09-23T03:52:26.386Z,6.20
2022-09-23T03:54:54.863Z,5.93
2022-09-23T03:57:23.039Z,5.97
2022-09-23T03:59:51.535Z,6.10
2022-09-23T04:02:20.104Z,6.22
2022-09-23T04:04:47.993Z,5.95
2022-09-23T04:07:17.334Z,6.10
2022-09-23T04:09:45.309Z,6.10
2022-09-23T04:12:14.713Z,5.85
2022-09-23T04:14:42.798Z,6.15
2022-09-23T04:17:10.856Z,6.18
2022-09-23T04:19:38.786Z,5.72
2022-09-23T04:22:07.172Z,6.20
2022-09-23T04:24:36.287Z,6.13
2022-09-23T04:27:04.047Z,6.13
2022-09-23T04:29:31.733Z,6.13
2022-09-23T04:31:59.503Z,6.10
2022-09-23T04:34:27.228Z,6.57
2022-09-23T04:36:54.949Z,5.90
2022-09-23T04:39:22.691Z,6.07
2022-09-23T04:41:51.775Z,6.03
2022-09-23T04:44:21.092Z,6.45
2022-09-23T04:46:49.283Z,6.40
2022-09-23T04:49:17.462Z,6.72
2022-09-23T04:51:45.659Z,6.70
2022-09-23T04:54:14.553Z,6.55
2022-09-23T04:56:42.696Z,6.38
2022-09-23T04:59:11.772Z,6.95
2022-09-23T05:01:39.521Z,6.05
2022-09-23T05:04:10.074Z,6.25
2022-09-23T05:06:38.275Z,6.00
2022-09-23T05:09:07.727Z,7.00
2022-09-23T05:11:35.821Z,6.45
2022-09-23T05:14:03.575Z,6.40
2022-09-23T05:16:33.045Z,6.65
2022-09-23T05:19:01.057Z,6.40
2022-09-23T05:21:30.181Z,6.30
2022-09-23T05:24:00.950Z,6.50
2022-09-23T05:26:30.761Z,6.90
2022-09-23T05:28:58.699Z,6.50
2022-09-23T05:31:27.696Z,6.50
2022-09-23T05:33:58.863Z,5.90
2022-09-23T05:36:27.910Z,6.83
2022-09-23T05:38:56.711Z,6.70
2022-09-23T05:41:24.825Z,6.90
2022-09-23T05:43:53.339Z,6.25
2022-09-23T05:46:23.180Z,6.70
2022-09-23T05:48:51.043Z,6.03
2022-09-23T05:51:21.846Z,6.55
2022-09-23T05:53:49.992Z,6.27
2022-09-23T05:56:18.875Z,6.38
2022-09-23T05:58:46.616Z,6.93
2022-09-23T06:01:15.695Z,6.90
2022-09-23T06:03:43.409Z,7.40
2022-09-23T06:06:14.469Z,7.20
2022-09-23T06:08:43.675Z,7.00
2022-09-23T06:11:12.357Z,6.60
2022-09-23T06:13:40.434Z,6.63
2022-09-23T06:16:09.512Z,6.97
2022-09-23T06:18:39.242Z,6.63
2022-09-23T06:21:07.884Z,6.00
2022-09-23T06:23:38.908Z,6.28
2022-09-23T06:26:11.484Z,6.20
2022-09-23T06:28:40.463Z,5.88
2022-09-23T06:31:13.360Z,5.90
2022-09-23T06:33:41.934Z,6.10
2022-09-23T06:36:09.842Z,5.53
2022-09-23T06:38:40.255Z,5.68
2022-09-23T06:41:09.670Z,5.65
2022-09-23T06:43:37.428Z,5.97
2022-09-23T06:46:07.291Z,5.82
2022-09-23T06:48:36.211Z,5.80
2022-09-23T06:51:07.144Z,6.00
2022-09-23T06:53:35.463Z,6.05
2022-09-23T06:56:05.033Z,6.50
2022-09-23T06:58:35.561Z,6.60
2022-09-23T07:01:03.787Z,6.03
2022-09-23T07:03:32.078Z,6.13
2022-09-23T07:06:00.877Z,5.97
2022-09-23T07:08:29.676Z,5.90
2022-09-23T07:10:59.543Z,6.00
2022-09-23T07:13:27.955Z,6.28
2022-09-23T07:15:58.960Z,6.40
2022-09-23T07:18:27.765Z,6.50
2022-09-23T07:20:58.823Z,5.97
2022-09-23T07:23:26.902Z,5.80
2022-09-23T07:25:54.869Z,6.10
2022-09-23T07:28:22.653Z,6.50
2022-09-23T07:30:59.186Z,6.10
2022-09-23T07:33:33.343Z,5.97
2022-09-23T07:36:05.608Z,6.10
2022-09-23T07:38:33.349Z,6.20
2022-09-23T07:41:05.895Z,5.88
2022-09-23T07:43:33.823Z,6.03
2022-09-23T07:46:03.292Z,6.05
2022-09-23T07:48:34.549Z,5.63
2022-09-23T07:51:07.249Z,5.80
2022-09-23T07:53:34.938Z,5.80
2022-09-23T07:56:04.468Z,6.90
2022-09-23T07:58:32.118Z,5.70
2022-09-23T08:01:03.212Z,6.13
2022-09-23T08:03:32.368Z,5.43
2022-09-23T08:06:07.956Z,6.03
2022-09-23T08:08:35.767Z,5.90
2022-09-23T08:11:04.551Z,6.10
2022-09-23T08:13:33.082Z,6.20
2022-09-23T08:16:01.081Z,5.85
2022-09-23T08:18:29.014Z,5.80
2022-09-23T08:20:58.074Z,5.97
2022-09-23T08:23:25.834Z,6.03
2022-09-23T08:25:59.909Z,6.00
2022-09-23T08:28:28.272Z,6.55
2022-09-23T08:30:56.332Z,5.57
2022-09-23T08:33:24.586Z,6.15
2022-09-23T08:35:52.744Z,6.22
2022-09-23T08:38:21.890Z,6.30
2022-09-23T08:40:50.651Z,6.20
2022-09-23T08:43:23.206Z,5.93
2022-09-23T08:45:51.996Z,5.53
2022-09-23T08:48:23.404Z,5.40
2022-09-23T08:50:54.525Z,5.35
2022-09-23T08:53:26.899Z,6.07
2022-09-23T08:55:56.312Z,6.15
2022-09-23T08:58:38.068Z,6.10
2022-09-23T09:01:15.779Z,5.82
2022-09-23T09:03:47.377Z,5.93
2022-09-23T09:06:19.886Z,5.93
2022-09-23T09:08:56.978Z,5.47
2022-09-23T09:11:31.362Z,6.30
2022-09-23T09:14:02.185Z,5.30
2022-09-23T09:17:01.212Z,5.95
2022-09-23T09:19:52.181Z,5.43
2022-09-23T09:22:24.902Z,5.93
2022-09-23T09:24:56.845Z,5.80
2022-09-23T09:27:25.227Z,6.43
2022-09-23T09:29:55.440Z,5.93
2022-09-23T09:32:34.042Z,5.40
2022-09-23T09:35:07.646Z,5.17
2022-09-23T09:37:38.591Z,5.57
2022-09-23T09:40:11.994Z,5.90
2022-09-23T09:42:41.334Z,5.72
2022-09-23T09:45:16.031Z,5.45
2022-09-23T09:47:48.148Z,6.03
2022-09-23T09:50:21.485Z,6.33
2022-09-23T09:52:49.302Z,5.75
2022-09-23T09:55:26.283Z,5.45
2022-09-23T09:57:57.415Z,6.00
2022-09-23T10:00:50.593Z,5.80
2022-09-23T10:03:27.495Z,5.80
2022-09-23T10:05:57.657Z,6.18
2022-09-23T10:08:28.416Z,5.65
2022-09-23T10:11:03.985Z,5.80
2022-09-23T10:13:32.231Z,6.83
2022-09-23T10:16:01.006Z,6.20
2022-09-23T10:18:31.808Z,6.15
2022-09-23T10:21:07.107Z,5.70
2022-09-23T10:23:35.259Z,6.00
2022-09-23T10:26:08.066Z,5.72
2022-09-23T10:28:45.711Z,6.03
2022-09-23T10:31:15.457Z,5.35
2022-09-23T10:33:48.046Z,5.85
2022-09-23T10:36:16.770Z,5.43
2022-09-23T10:38:44.547Z,5.70
2022-09-23T10:41:44.338Z,5.85
2022-09-23T10:44:52.627Z,6.13
2022-09-23T10:47:28.256Z,5.35
2022-09-23T10:50:15.896Z,5.90
2022-09-23T10:52:49.859Z,5.53
2022-09-23T10:55:40.602Z,5.05
2022-09-23T10:58:24.785Z,5.40
2022-09-23T11:01:00.914Z,5.95
2022-09-23T11:03:51.370Z,5.32
2022-09-23T11:06:25.027Z,5.73
2022-09-23T11:09:08.846Z,5.50
2022-09-23T11:11:44.113Z,5.30
2022-09-23T11:14:44.002Z,5.90
2022-09-23T11:17:25.789Z,5.07
2022-09-23T11:20:08.325Z,6.00
2022-09-23T11:22:53.168Z,5.28
2022-09-23T11:25:31.209Z,5.65
2022-09-23T11:28:17.541Z,4.93
2022-09-23T11:30:53.206Z,5.20
2022-09-23T11:33:31.878Z,5.70
2022-09-23T11:36:03.058Z,5.25
2022-09-23T11:38:35.432Z,4.85
2022-09-23T11:41:22.102Z,5.40
2022-09-23T11:43:52.624Z,5.03
2022-09-23T11:46:31.251Z,5.55
2022-09-23T11:49:00.854Z,5.15
2022-09-23T11:51:31.476Z,4.55
2022-09-23T11:54:01.870Z,4.97
2022-09-23T11:56:36.016Z,4.60
2022-09-23T11:59:10.539Z,4.90
2022-09-23T12:01:45.675Z,5.18
2022-09-23T12:04:21.123Z,4.93
2022-09-23T12:06:52.347Z,5.18
2022-09-23T12:09:40.944Z,5.50
2022-09-23T12:12:18.914Z,5.30
2022-09-23T12:14:53.772Z,5.05
2022-09-23T12:17:55.624Z,5.03
2022-09-23T12:20:40.597Z,5.95
2022-09-23T12:23:18.993Z,5.38
2022-09-23T12:25:47.791Z,5.75
2022-09-23T12:28:19.378Z,5.27
2022-09-23T12:30:49.849Z,4.90
2022-09-23T12:33:24.479Z,4.90
2022-09-23T12:35:54.351Z,5.33
2022-09-23T12:38:26.290Z,5.60
2022-09-23T12:40:55.808Z,5.40
2022-09-23T12:43:30.875Z,5.53
2022-09-23T12:46:19.755Z,5.60
2022-09-23T12:49:00.501Z,6.15
2022-09-23T12:51:29.529Z,5.57
2022-09-23T12:54:21.463Z,5.50
2022-09-23T12:57:01.334Z,5.30
2022-09-23T12:59:34.087Z,5.68
2022-09-23T13:02:26.896Z,4.82
2022-09-23T13:05:17.896Z,4.70
2022-09-23T13:07:48.238Z,4.82
2022-09-23T13:10:26.522Z,5.60
2022-09-23T13:12:55.842Z,5.10
2022-09-23T13:15:28.903Z,4.82
2022-09-23T13:18:29.759Z,4.47
2022-09-23T13:20:59.576Z,4.60
2022-09-23T13:23:28.206Z,5.18
2022-09-23T13:25:58.262Z,4.97
2022-09-23T13:28:32.986Z,4.93
2022-09-23T13:31:05.265Z,4.50
2022-09-23T13:33:40.038Z,5.10
2022-09-23T13:36:14.269Z,5.25
2022-09-23T13:38:42.161Z,4.53
2022-09-23T13:41:16.158Z,5.68
2022-09-23T13:43:45.912Z,4.28
2022-09-23T13:46:17.579Z,4.60
2022-09-23T13:48:46.711Z,3.97
2022-09-23T13:51:22.815Z,4.57
2022-09-23T13:53:54.784Z,4.78
2022-09-23T13:56:23.226Z,4.72
2022-09-23T13:58:50.930Z,5.00
2022-09-23T14:01:24.086Z,4.65
2022-09-23T14:03:52.342Z,4.17
2022-09-23T14:06:21.503Z,4.30
2022-09-23T14:08:50.501Z,4.77
2022-09-23T14:11:20.045Z,4.50
2022-09-23T14:13:50.967Z,4.77
2022-09-23T14:16:19.606Z,4.15
2022-09-23T14:18:49.526Z,4.60
2022-09-23T14:21:29.916Z,4.68
2022-09-23T14:23:57.811Z,4.35
2022-09-23T14:26:25.883Z,4.25
2022-09-23T14:28:53.762Z,3.85
2022-09-23T14:31:21.559Z,4.10
2022-09-23T14:33:49.262Z,3.75
2022-09-23T14:36:44.656Z,3.43
2022-09-23T14:39:13.795Z,3.27
2022-09-23T14:41:43.813Z,3.20
2022-09-23T14:44:20.738Z,3.80
2022-09-23T14:46:56.828Z,3.63
2022-09-23T14:49:24.807Z,3.70
2022-09-23T14:51:54.373Z,3.78
2022-09-23T14:54:32.507Z,3.50
2022-09-23T14:57:00.911Z,3.33
2022-09-23T14:59:33.055Z,3.58
2022-09-23T15:02:00.928Z,3.50
2022-09-23T15:04:34.937Z,3.90
2022-09-23T15:07:06.994Z,3.83
2022-09-23T15:09:37.990Z,4.05
2022-09-23T15:12:08.111Z,3.90
2022-09-23T15:14:40.711Z,3.90
2022-09-23T15:17:16.518Z,4.43
2022-09-23T15:19:44.395Z,3.78
2022-09-23T15:22:12.924Z,3.63
2022-09-23T15:24:46.347Z,3.67
2022-09-23T15:27:32.014Z,3.42
2022-09-23T15:30:15.036Z,3.30
2022-09-23T15:32:43.418Z,4.00
2022-09-23T15:35:15.814Z,3.47
2022-09-23T15:37:43.921Z,3.40
2022-09-23T15:40:20.698Z,3.20
2022-09-23T15:42:52.394Z,3.90
2022-09-23T15:45:22.426Z,3.60
2022-09-23T15:47:51.571Z,3.67
2022-09-23T15:50:19.791Z,3.65
2022-09-23T15:52:47.540Z,3.60
2022-09-23T15:55:18.311Z,3.30
2022-09-23T15:57:46.108Z,3.10
2022-09-23T16:00:15.739Z,3.42
2022-09-23T16:02:45.683Z,3.40
2022-09-23T16:05:21.078Z,3.63
2022-09-23T16:07:52.092Z,3.67
2022-09-23T16:10:22.419Z,3.40
2022-09-23T16:12:50.491Z,3.80
2022-09-23T16:15:21.114Z,3.58
2022-09-23T16:17:48.998Z,3.60
2022-09-23T16:20:17.738Z,3.38
2022-09-23T16:22:50.543Z,3.65
2022-09-23T16:25:18.283Z,2.90
2022-09-23T16:27:47.334Z,3.15
2022-09-23T16:30:15.035Z,3.70
2022-09-23T16:32:43.260Z,3.72
2022-09-23T16:35:11.207Z,5.43
2022-09-23T16:37:38.877Z,10.77
2022-09-23T16:40:09.676Z,7.40
2022-09-23T16:42:38.319Z,6.32
2022-09-23T16:45:09.259Z,5.55
2022-09-23T16:47:44.283Z,5.20
2022-09-23T16:50:12.547Z,6.53
2022-09-23T16:52:40.586Z,6.03
2022-09-23T16:55:10.342Z,5.82
2022-09-23T16:57:38.216Z,5.30
2022-09-23T17:00:27.943Z,5.22
2022-09-23T17:03:15.326Z,6.00
2022-09-23T17:05:46.575Z,6.93
2022-09-23T17:08:15.270Z,6.55
2022-09-23T17:10:43.106Z,6.00
2022-09-23T17:13:11.510Z,6.30
2022-09-23T17:15:40.921Z,6.80
2022-09-23T17:18:09.482Z,7.28
2022-09-23T17:20:38.870Z,7.47
2022-09-23T17:23:07.923Z,7.55
2022-09-23T17:25:35.690Z,7.63
2022-09-23T17:28:03.387Z,7.70
2022-09-23T17:30:31.079Z,7.78
2022-09-23T17:33:00.190Z,8.10
2022-09-23T17:35:27.950Z,7.88
2022-09-23T17:37:55.511Z,7.57
2022-09-23T17:40:26.358Z,7.57
2022-09-23T17:42:54.210Z,7.95
2022-09-23T17:45:21.919Z,8.13
2022-09-23T17:47:52.203Z,9.70
2022-09-23T17:50:22.200Z,11.90
2022-09-23T17:52:49.981Z,13.65
2022-09-23T17:55:18.103Z,13.80
2022-09-23T17:57:45.804Z,12.37
2022-09-23T18:00:14.333Z,12.73
2022-09-23T18:02:41.968Z,11.77
2022-09-23T18:05:10.202Z,10.38
2022-09-23T18:07:39.353Z,9.90
2022-09-23T18:10:08.462Z,9.82
2022-09-23T18:12:36.261Z,9.87
2022-09-23T18:15:04.135Z,9.23
2022-09-23T18:17:31.890Z,8.30
2022-09-23T18:19:59.547Z,8.27
2022-09-23T18:22:27.220Z,8.68
2022-09-23T18:24:56.271Z,8.25
2022-09-23T18:27:24.000Z,7.85
2022-09-23T18:29:51.639Z,7.47
2022-09-23T18:32:19.337Z,6.78
2022-09-23T18:34:47.080Z,8.20
2022-09-23T18:37:16.171Z,8.00
2022-09-23T18:39:44.697Z,8.93
2022-09-23T18:42:14.393Z,8.07
2022-09-23T18:44:42.116Z,8.37
2022-09-23T18:47:29.809Z,7.90
2022-09-23T18:50:14.744Z,8.07
2022-09-23T18:52:42.623Z,8.43
2022-09-23T18:55:11.157Z,8.05
2022-09-23T18:57:41.205Z,8.77
2022-09-23T19:00:10.426Z,8.30
2022-09-23T19:02:38.092Z,8.60
2022-09-23T19:05:06.385Z,10.02
2022-09-23T19:07:34.006Z,11.07
2022-09-23T19:10:01.656Z,14.57
2022-09-23T19:12:29.328Z,19.08
2022-09-23T19:14:58.379Z,16.37
2022-09-23T19:17:26.055Z,17.17
2022-09-23T19:19:53.726Z,19.10
2022-09-23T19:22:21.416Z,27.63
2022-09-23T19:24:49.269Z,22.17
2022-09-23T19:27:16.939Z,22.42
2022-09-23T19:29:47.415Z,21.27
2022-09-23T19:32:16.497Z,21.45
2022-09-23T19:34:44.179Z,21.80
2022-09-23T19:37:12.172Z,18.52
2022-09-23T19:39:40.777Z,17.50
2022-09-23T19:42:08.415Z,15.63
2022-09-23T19:44:37.746Z,15.40
2022-09-23T19:47:05.859Z,15.07
2022-09-23T19:49:35.522Z,17.17
2022-09-23T19:52:03.874Z,13.43
2022-09-23T19:54:31.602Z,12.67
2022-09-23T19:56:59.371Z,12.10
2022-09-23T19:59:28.188Z,12.33
2022-09-23T20:01:55.950Z,12.55
2022-09-23T20:04:23.705Z,14.80
2022-09-23T20:06:52.913Z,15.82
2022-09-23T20:09:20.750Z,12.95
2022-09-23T20:11:48.433Z,12.68
2022-09-23T20:14:17.202Z,12.07
2022-09-23T20:16:45.553Z,12.07
2022-09-23T20:19:13.466Z,11.55
2022-09-23T20:21:41.121Z,11.63
2022-09-23T20:24:12.017Z,11.45
2022-09-23T20:26:57.061Z,11.15
2022-09-23T20:29:24.750Z,12.00
2022-09-23T20:31:52.444Z,11.63
2022-09-23T20:34:21.166Z,11.87
2022-09-23T20:36:48.918Z,13.05
2022-09-23T20:39:18.009Z,12.50
2022-09-23T20:41:45.976Z,14.07
2022-09-23T20:44:13.878Z,13.05
2022-09-23T20:46:47.500Z,13.82
2022-09-23T20:49:16.318Z,13.63
2022-09-23T20:51:45.336Z,13.88
2022-09-23T20:54:13.159Z,17.13
2022-09-23T20:56:42.187Z,16.73
2022-09-23T20:59:10.485Z,16.33
2022-09-23T21:01:38.327Z,16.52
2022-09-23T21:04:07.836Z,17.25
2022-09-23T21:06:36.555Z,16.92
2022-09-23T21:09:04.478Z,17.13
2022-09-23T21:11:32.284Z,18.38
2022-09-23T21:14:02.149Z,19.05
2022-09-23T21:16:30.532Z,17.50
2022-09-23T21:18:59.280Z,16.85
2022-09-23T21:21:27.249Z,18.85
2022-09-23T21:23:58.208Z,18.45
2022-09-23T21:26:32.094Z,17.83
2022-09-23T21:29:02.223Z,19.07
2022-09-23T21:31:33.725Z,18.55
2022-09-23T21:34:03.245Z,19.88
2022-09-23T21:36:32.742Z,20.33
2022-09-23T21:39:01.653Z,19.80
2022-09-23T21:41:29.501Z,22.00
2022-09-23T21:43:57.732Z,22.05
2022-09-23T21:46:28.232Z,22.02
2022-09-23T21:48:57.499Z,22.45
2022-09-23T21:51:26.709Z,22.60
2022-09-23T21:53:55.307Z,23.05
2022-09-23T21:56:25.015Z,21.83
2022-09-23T21:58:54.341Z,21.83
2022-09-23T22:01:23.270Z,23.88
2022-09-23T22:03:53.767Z,24.40
2022-09-23T22:06:22.740Z,24.30
2022-09-23T22:08:52.772Z,26.10
2022-09-23T22:11:39.432Z,26.47
2022-09-23T22:14:08.488Z,22.90
2022-09-23T22:16:36.893Z,24.27
2022-09-23T22:19:07.423Z,24.20
2022-09-23T22:21:36.539Z,21.55
2022-09-23T22:24:05.540Z,20.80
2022-09-23T22:26:34.773Z,23.08
2022-09-23T22:29:20.448Z,26.33
2022-09-23T22:32:05.852Z,26.90
2022-09-23T22:34:51.923Z,23.77
2022-09-23T22:37:21.712Z,24.33
2022-09-23T22:39:49.604Z,24.23
2022-09-23T22:42:17.253Z,24.90
2022-09-23T22:44:45.908Z,24.35
2022-09-23T22:47:13.630Z,24.07
2022-09-23T22:49:42.927Z,26.00
2022-09-23T22:52:12.386Z,24.73
2022-09-23T22:54:40.090Z,25.15
2022-09-23T22:57:08.230Z,25.90
2022-09-23T22:59:37.196Z,24.98
2022-09-23T23:02:06.628Z,26.67
2022-09-23T23:04:34.389Z,26.60
2022-09-23T23:07:03.420Z,27.60
2022-09-23T23:09:31.168Z,26.40
2022-09-23T23:11:58.817Z,26.83
2022-09-23T23:14:27.841Z,26.05
2022-09-23T23:16:55.501Z,27.70
2022-09-23T23:19:23.595Z,27.13
2022-09-23T23:21:51.675Z,27.35
2022-09-23T23:24:22.292Z,26.20
2022-09-23T23:26:50.571Z,25.70
2022-09-23T23:29:20.816Z,27.90
2022-09-23T23:31:49.245Z,28.73
2022-09-23T23:34:18.727Z,28.73
2022-09-23T23:36:47.115Z,28.73
2022-09-23T23:39:15.414Z,31.67
2022-09-23T23:41:44.678Z,29.53
2022-09-23T23:44:13.353Z,28.43
2022-09-23T23:46:41.142Z,30.10
2022-09-23T23:49:08.985Z,30.70
2022-09-23T23:51:36.837Z,28.60
2022-09-23T23:54:04.776Z,30.15
2022-09-23T23:56:32.693Z,29.45
2022-09-23T23:59:03.364Z,29.23
